Airport ID:KEDC
Update Time (UTC):12 DEC 17 21:41
Wind Speed (Knots):10
Wind Direction (Magnetic):350
Temperature (°C):15
Dew Point (°C):-2
Humidity (%):29
Altimeter (inHg):30.29
Density Altitude (Feet):
Visibility (Miles):10
Clouds (Hundreds of feet):CLR
Present Weather:NO PRECIPITATION
METAR:METAR KEDC 122140Z AUTO 35010KT 10SM CLR 15/M02 A3029 RMK AO2

The data displayed is for advisory purposes only and is not to be used for flight planning or operations.

This page is not automatically refreshed. Reload the page to see current data.